sensor_id;sensor_type;location;lat;lon;timestamp;temperature;humidity
29403;DHT22;16382;59.942;30.472;2023-02-15T00:01:57;2.50;99.90
29403;DHT22;16382;59.942;30.472;2023-02-15T00:04:25;2.50;99.90
29403;DHT22;16382;59.942;30.472;2023-02-15T00:07:14;2.60;99.90
29403;DHT22;16382;59.942;30.472;2023-02-15T00:09:42;2.60;99.90
29403;DHT22;16382;59.942;30.472;2023-02-15T00:12:12;2.60;99.90
29403;DHT22;16382;59.942;30.472;2023-02-15T00:14:40;2.60;99.90
29403;DHT22;16382;59.942;30.472;2023-02-15T00:17:07;2.60;99.90
29403;DHT22;16382;59.942;30.472;2023-02-15T00:19:35;2.60;99.90
29403;DHT22;16382;59.942;30.472;2023-02-15T00:22:02;2.60;99.90
29403;DHT22;16382;59.942;30.472;2023-02-15T00:24:32;2.60;99.90
29403;DHT22;16382;59.942;30.472;2023-02-15T00:26:59;2.70;99.90
29403;DHT22;16382;59.942;30.472;2023-02-15T00:29:27;2.70;99.90
29403;DHT22;16382;59.942;30.472;2023-02-15T00:31:55;2.70;99.90
29403;DHT22;16382;59.942;30.472;2023-02-15T00:34:25;2.70;99.90
29403;DHT22;16382;59.942;30.472;2023-02-15T00:36:53;2.70;99.90
29403;DHT22;16382;59.942;30.472;2023-02-15T00:39:21;2.70;99.90
29403;DHT22;16382;59.942;30.472;2023-02-15T00:41:51;2.80;99.90
29403;DHT22;16382;59.942;30.472;2023-02-15T00:44:18;2.70;99.90
29403;DHT22;16382;59.942;30.472;2023-02-15T00:46:46;2.70;99.90
29403;DHT22;16382;59.942;30.472;2023-02-15T00:49:13;2.70;99.90
29403;DHT22;16382;59.942;30.472;2023-02-15T00:51:40;2.70;99.90
29403;DHT22;16382;59.942;30.472;2023-02-15T00:54:08;2.70;99.90
29403;DHT22;16382;59.942;30.472;2023-02-15T00:56:35;2.70;99.90
29403;DHT22;16382;59.942;30.472;2023-02-15T00:59:04;2.60;99.90
29403;DHT22;16382;59.942;30.472;2023-02-15T01:01:34;2.60;99.90
29403;DHT22;16382;59.942;30.472;2023-02-15T01:04:02;2.60;99.90
29403;DHT22;16382;59.942;30.472;2023-02-15T01:06:29;2.60;99.90
29403;DHT22;16382;59.942;30.472;2023-02-15T01:08:57;2.70;99.90
29403;DHT22;16382;59.942;30.472;2023-02-15T01:11:24;2.70;99.90
29403;DHT22;16382;59.942;30.472;2023-02-15T01:13:53;2.70;99.90
29403;DHT22;16382;59.942;30.472;2023-02-15T01:16:24;2.80;99.90
29403;DHT22;16382;59.942;30.472;2023-02-15T01:18:55;2.70;99.90
29403;DHT22;16382;59.942;30.472;2023-02-15T01:21:28;2.70;99.90
29403;DHT22;16382;59.942;30.472;2023-02-15T01:24:02;2.80;99.90
29403;DHT22;16382;59.942;30.472;2023-02-15T01:26:30;2.70;99.90
29403;DHT22;16382;59.942;30.472;2023-02-15T01:28:58;2.70;99.90
29403;DHT22;16382;59.942;30.472;2023-02-15T01:31:27;2.80;99.90
29403;DHT22;16382;59.942;30.472;2023-02-15T01:33:54;2.70;99.90
29403;DHT22;16382;59.942;30.472;2023-02-15T01:36:21;2.80;99.90
29403;DHT22;16382;59.942;30.472;2023-02-15T01:38:49;2.80;99.90
29403;DHT22;16382;59.942;30.472;2023-02-15T01:41:16;2.80;99.90
29403;DHT22;16382;59.942;30.472;2023-02-15T01:43:50;2.80;99.90
29403;DHT22;16382;59.942;30.472;2023-02-15T01:46:20;2.80;99.90
29403;DHT22;16382;59.942;30.472;2023-02-15T01:48:55;2.80;99.90
29403;DHT22;16382;59.942;30.472;2023-02-15T01:51:27;2.80;99.90
29403;DHT22;16382;59.942;30.472;2023-02-15T01:53:59;2.90;99.90
29403;DHT22;16382;59.942;30.472;2023-02-15T01:56:33;2.90;99.90
29403;DHT22;16382;59.942;30.472;2023-02-15T01:59:06;2.90;99.90
29403;DHT22;16382;59.942;30.472;2023-02-15T02:01:36;2.90;99.90
29403;DHT22;16382;59.942;30.472;2023-02-15T02:04:10;2.90;99.90
29403;DHT22;16382;59.942;30.472;2023-02-15T02:06:42;2.90;99.90
29403;DHT22;16382;59.942;30.472;2023-02-15T02:09:11;2.90;99.90
29403;DHT22;16382;59.942;30.472;2023-02-15T02:11:41;2.90;99.90
29403;DHT22;16382;59.942;30.472;2023-02-15T02:14:13;2.90;99.90
29403;DHT22;16382;59.942;30.472;2023-02-15T02:16:47;2.80;99.90
29403;DHT22;16382;59.942;30.472;2023-02-15T02:26:04;2.90;99.90
29403;DHT22;16382;59.942;30.472;2023-02-15T02:32:47;2.90;99.90
29403;DHT22;16382;59.942;30.472;2023-02-15T02:35:25;2.90;99.90
29403;DHT22;16382;59.942;30.472;2023-02-15T02:38:03;2.90;99.90
29403;DHT22;16382;59.942;30.472;2023-02-15T02:40:43;2.90;99.90
29403;DHT22;16382;59.942;30.472;2023-02-15T02:43:20;2.90;99.90
29403;DHT22;16382;59.942;30.472;2023-02-15T02:45:54;3.00;99.90
29403;DHT22;16382;59.942;30.472;2023-02-15T02:48:27;3.00;99.90
29403;DHT22;16382;59.942;30.472;2023-02-15T02:50:56;3.00;99.90
29403;DHT22;16382;59.942;30.472;2023-02-15T02:53:24;3.00;99.90
29403;DHT22;16382;59.942;30.472;2023-02-15T02:55:54;3.00;99.90
29403;DHT22;16382;59.942;30.472;2023-02-15T02:58:26;3.00;99.90
29403;DHT22;16382;59.942;30.472;2023-02-15T03:01:00;3.00;99.90
29403;DHT22;16382;59.942;30.472;2023-02-15T03:03:36;3.00;99.90
29403;DHT22;16382;59.942;30.472;2023-02-15T03:06:05;3.00;99.90
29403;DHT22;16382;59.942;30.472;2023-02-15T03:08:40;2.90;99.90
29403;DHT22;16382;59.942;30.472;2023-02-15T03:11:11;2.90;99.90
29403;DHT22;16382;59.942;30.472;2023-02-15T03:13:40;2.90;99.90
29403;DHT22;16382;59.942;30.472;2023-02-15T03:16:10;2.90;99.90
29403;DHT22;16382;59.942;30.472;2023-02-15T03:18:58;2.90;99.90
29403;DHT22;16382;59.942;30.472;2023-02-15T03:21:34;2.90;99.90
29403;DHT22;16382;59.942;30.472;2023-02-15T03:24:09;2.90;99.90
29403;DHT22;16382;59.942;30.472;2023-02-15T03:26:40;2.90;99.90
29403;DHT22;16382;59.942;30.472;2023-02-15T03:29:10;2.80;99.90
29403;DHT22;16382;59.942;30.472;2023-02-15T03:31:40;2.80;99.90
29403;DHT22;16382;59.942;30.472;2023-02-15T03:34:13;2.80;99.90
29403;DHT22;16382;59.942;30.472;2023-02-15T03:36:45;2.80;99.90
29403;DHT22;16382;59.942;30.472;2023-02-15T03:39:19;2.80;99.90
29403;DHT22;16382;59.942;30.472;2023-02-15T03:41:55;2.80;99.90
29403;DHT22;16382;59.942;30.472;2023-02-15T03:44:28;2.80;99.90
29403;DHT22;16382;59.942;30.472;2023-02-15T03:47:02;2.80;99.90
29403;DHT22;16382;59.942;30.472;2023-02-15T03:49:39;2.80;99.90
29403;DHT22;16382;59.942;30.472;2023-02-15T03:52:11;2.90;99.90
29403;DHT22;16382;59.942;30.472;2023-02-15T03:54:41;2.90;99.90
29403;DHT22;16382;59.942;30.472;2023-02-15T03:57:15;2.90;99.90
29403;DHT22;16382;59.942;30.472;2023-02-15T04:00:05;3.00;99.90
29403;DHT22;16382;59.942;30.472;2023-02-15T04:03:07;3.00;99.90
29403;DHT22;16382;59.942;30.472;2023-02-15T04:05:39;2.90;99.90
29403;DHT22;16382;59.942;30.472;2023-02-15T04:08:08;2.90;99.90
29403;DHT22;16382;59.942;30.472;2023-02-15T04:10:36;2.90;99.90
29403;DHT22;16382;59.942;30.472;2023-02-15T04:13:18;2.90;99.90
29403;DHT22;16382;59.942;30.472;2023-02-15T04:15:45;2.90;99.90
29403;DHT22;16382;59.942;30.472;2023-02-15T04:18:30;3.00;99.90
29403;DHT22;16382;59.942;30.472;2023-02-15T04:21:18;3.00;99.90
29403;DHT22;16382;59.942;30.472;2023-02-15T04:24:08;3.00;99.90
29403;DHT22;16382;59.942;30.472;2023-02-15T04:26:54;3.00;99.90
29403;DHT22;16382;59.942;30.472;2023-02-15T04:29:23;2.90;99.90
29403;DHT22;16382;59.942;30.472;2023-02-15T04:31:54;2.90;99.90
29403;DHT22;16382;59.942;30.472;2023-02-15T04:34:23;2.90;99.90
29403;DHT22;16382;59.942;30.472;2023-02-15T04:36:53;2.90;99.90
29403;DHT22;16382;59.942;30.472;2023-02-15T04:39:23;2.90;99.90
29403;DHT22;16382;59.942;30.472;2023-02-15T04:41:50;2.90;99.90
29403;DHT22;16382;59.942;30.472;2023-02-15T04:44:18;2.90;99.90
29403;DHT22;16382;59.942;30.472;2023-02-15T04:46:53;2.90;99.90
29403;DHT22;16382;59.942;30.472;2023-02-15T04:49:20;2.90;99.90
29403;DHT22;16382;59.942;30.472;2023-02-15T04:51:48;3.00;99.90
29403;DHT22;16382;59.942;30.472;2023-02-15T04:54:16;2.90;99.90
29403;DHT22;16382;59.942;30.472;2023-02-15T04:56:44;2.80;99.90
29403;DHT22;16382;59.942;30.472;2023-02-15T04:59:12;2.80;99.90
29403;DHT22;16382;59.942;30.472;2023-02-15T05:01:39;2.80;99.90
29403;DHT22;16382;59.942;30.472;2023-02-15T05:04:07;2.70;99.90
29403;DHT22;16382;59.942;30.472;2023-02-15T05:06:35;2.70;99.90
29403;DHT22;16382;59.942;30.472;2023-02-15T05:09:02;2.80;99.90
29403;DHT22;16382;59.942;30.472;2023-02-15T05:11:32;2.80;99.90
29403;DHT22;16382;59.942;30.472;2023-02-15T05:13:59;2.70;99.90
29403;DHT22;16382;59.942;30.472;2023-02-15T05:16:26;2.70;99.90
29403;DHT22;16382;59.942;30.472;2023-02-15T05:18:54;2.60;99.90
29403;DHT22;16382;59.942;30.472;2023-02-15T05:21:22;2.50;99.90
29403;DHT22;16382;59.942;30.472;2023-02-15T05:23:49;2.50;99.90
29403;DHT22;16382;59.942;30.472;2023-02-15T05:26:18;2.50;99.90
29403;DHT22;16382;59.942;30.472;2023-02-15T05:29:06;2.50;99.90
29403;DHT22;16382;59.942;30.472;2023-02-15T05:31:34;2.50;99.90
29403;DHT22;16382;59.942;30.472;2023-02-15T05:34:03;2.50;99.90
29403;DHT22;16382;59.942;30.472;2023-02-15T05:36:30;2.50;99.90
29403;DHT22;16382;59.942;30.472;2023-02-15T05:38:58;2.40;99.90
29403;DHT22;16382;59.942;30.472;2023-02-15T05:41:25;2.40;99.90
29403;DHT22;16382;59.942;30.472;2023-02-15T05:43:55;2.40;99.90
29403;DHT22;16382;59.942;30.472;2023-02-15T05:46:24;2.40;99.90
29403;DHT22;16382;59.942;30.472;2023-02-15T05:48:51;2.50;99.90
29403;DHT22;16382;59.942;30.472;2023-02-15T05:51:19;2.40;99.90
29403;DHT22;16382;59.942;30.472;2023-02-15T05:53:46;2.40;99.90
29403;DHT22;16382;59.942;30.472;2023-02-15T05:56:14;2.40;99.90
29403;DHT22;16382;59.942;30.472;2023-02-15T05:58:42;2.40;99.90
29403;DHT22;16382;59.942;30.472;2023-02-15T06:01:10;2.50;99.90
29403;DHT22;16382;59.942;30.472;2023-02-15T06:03:45;2.50;99.90
29403;DHT22;16382;59.942;30.472;2023-02-15T06:06:13;2.50;99.90
29403;DHT22;16382;59.942;30.472;2023-02-15T06:08:41;2.60;99.90
29403;DHT22;16382;59.942;30.472;2023-02-15T06:11:09;2.50;99.90
29403;DHT22;16382;59.942;30.472;2023-02-15T06:13:36;2.50;99.90
29403;DHT22;16382;59.942;30.472;2023-02-15T06:16:04;2.50;99.90
29403;DHT22;16382;59.942;30.472;2023-02-15T06:18:35;2.50;99.90
29403;DHT22;16382;59.942;30.472;2023-02-15T06:21:04;2.50;99.90
29403;DHT22;16382;59.942;30.472;2023-02-15T06:23:31;2.50;99.90
29403;DHT22;16382;59.942;30.472;2023-02-15T06:25:59;2.50;99.90
29403;DHT22;16382;59.942;30.472;2023-02-15T06:28:27;2.50;99.90
29403;DHT22;16382;59.942;30.472;2023-02-15T06:30:54;2.60;99.90
29403;DHT22;16382;59.942;30.472;2023-02-15T06:33:22;2.60;99.90
29403;DHT22;16382;59.942;30.472;2023-02-15T06:35:50;2.60;99.90
29403;DHT22;16382;59.942;30.472;2023-02-15T06:38:19;2.60;99.90
29403;DHT22;16382;59.942;30.472;2023-02-15T06:40:46;2.60;99.90
29403;DHT22;16382;59.942;30.472;2023-02-15T06:43:14;2.60;99.90
29403;DHT22;16382;59.942;30.472;2023-02-15T06:45:41;2.70;99.90
29403;DHT22;16382;59.942;30.472;2023-02-15T06:48:09;2.70;99.90
29403;DHT22;16382;59.942;30.472;2023-02-15T06:50:37;2.70;99.90
29403;DHT22;16382;59.942;30.472;2023-02-15T06:53:04;2.70;99.90
29403;DHT22;16382;59.942;30.472;2023-02-15T06:55:33;2.80;99.90
29403;DHT22;16382;59.942;30.472;2023-02-15T06:58:00;2.80;99.90
29403;DHT22;16382;59.942;30.472;2023-02-15T07:00:28;2.80;99.90
29403;DHT22;16382;59.942;30.472;2023-02-15T07:02:56;2.80;99.90
29403;DHT22;16382;59.942;30.472;2023-02-15T07:05:24;2.90;99.90
29403;DHT22;16382;59.942;30.472;2023-02-15T07:07:56;2.90;99.90
29403;DHT22;16382;59.942;30.472;2023-02-15T07:10:26;2.90;99.90
29403;DHT22;16382;59.942;30.472;2023-02-15T07:12:55;2.90;99.90
29403;DHT22;16382;59.942;30.472;2023-02-15T07:15:22;3.00;99.90
29403;DHT22;16382;59.942;30.472;2023-02-15T07:17:50;3.00;99.90
29403;DHT22;16382;59.942;30.472;2023-02-15T07:20:19;3.00;99.90
29403;DHT22;16382;59.942;30.472;2023-02-15T07:22:48;3.00;99.90
29403;DHT22;16382;59.942;30.472;2023-02-15T07:25:16;3.00;99.90
29403;DHT22;16382;59.942;30.472;2023-02-15T07:27:44;3.10;99.90
29403;DHT22;16382;59.942;30.472;2023-02-15T07:30:15;3.10;99.90
29403;DHT22;16382;59.942;30.472;2023-02-15T07:32:44;3.20;99.90
29403;DHT22;16382;59.942;30.472;2023-02-15T07:35:29;3.20;99.90
29403;DHT22;16382;59.942;30.472;2023-02-15T07:37:56;3.30;99.90
29403;DHT22;16382;59.942;30.472;2023-02-15T07:40:24;3.30;99.90
29403;DHT22;16382;59.942;30.472;2023-02-15T07:42:58;3.20;99.90
29403;DHT22;16382;59.942;30.472;2023-02-15T07:45:26;3.30;99.90
29403;DHT22;16382;59.942;30.472;2023-02-15T07:47:54;3.40;99.90
29403;DHT22;16382;59.942;30.472;2023-02-15T07:50:21;3.40;99.90
29403;DHT22;16382;59.942;30.472;2023-02-15T07:52:49;3.50;99.90
29403;DHT22;16382;59.942;30.472;2023-02-15T07:55:16;3.40;99.90
29403;DHT22;16382;59.942;30.472;2023-02-15T07:57:45;3.40;99.90
29403;DHT22;16382;59.942;30.472;2023-02-15T08:00:15;3.40;99.90
29403;DHT22;16382;59.942;30.472;2023-02-15T08:02:49;3.50;99.90
29403;DHT22;16382;59.942;30.472;2023-02-15T08:05:37;3.60;99.90
29403;DHT22;16382;59.942;30.472;2023-02-15T08:08:06;3.60;99.90
29403;DHT22;16382;59.942;30.472;2023-02-15T08:10:35;3.60;99.90
29403;DHT22;16382;59.942;30.472;2023-02-15T08:13:20;3.60;99.90
29403;DHT22;16382;59.942;30.472;2023-02-15T08:15:48;3.70;99.90
29403;DHT22;16382;59.942;30.472;2023-02-15T08:18:17;3.80;99.90
29403;DHT22;16382;59.942;30.472;2023-02-15T08:20:49;3.80;99.90
29403;DHT22;16382;59.942;30.472;2023-02-15T08:23:16;3.80;99.90
29403;DHT22;16382;59.942;30.472;2023-02-15T08:25:44;3.90;99.90
29403;DHT22;16382;59.942;30.472;2023-02-15T08:28:11;3.90;99.90
29403;DHT22;16382;59.942;30.472;2023-02-15T08:30:39;3.90;99.90
29403;DHT22;16382;59.942;30.472;2023-02-15T08:33:08;3.90;99.90
29403;DHT22;16382;59.942;30.472;2023-02-15T08:35:37;3.80;99.90
29403;DHT22;16382;59.942;30.472;2023-02-15T08:38:05;3.80;99.90
29403;DHT22;16382;59.942;30.472;2023-02-15T08:40:32;3.80;99.90
29403;DHT22;16382;59.942;30.472;2023-02-15T08:43:00;3.90;99.90
29403;DHT22;16382;59.942;30.472;2023-02-15T08:45:27;4.00;99.90
29403;DHT22;16382;59.942;30.472;2023-02-15T08:47:55;4.10;99.90
29403;DHT22;16382;59.942;30.472;2023-02-15T08:50:22;4.10;99.90
29403;DHT22;16382;59.942;30.472;2023-02-15T08:52:51;4.20;99.90
29403;DHT22;16382;59.942;30.472;2023-02-15T08:55:18;4.20;99.90
29403;DHT22;16382;59.942;30.472;2023-02-15T08:57:47;4.20;99.90
29403;DHT22;16382;59.942;30.472;2023-02-15T09:00:16;4.20;99.90
29403;DHT22;16382;59.942;30.472;2023-02-15T09:02:44;4.20;99.90
29403;DHT22;16382;59.942;30.472;2023-02-15T09:05:11;4.20;99.90
29403;DHT22;16382;59.942;30.472;2023-02-15T09:07:39;4.20;99.90
29403;DHT22;16382;59.942;30.472;2023-02-15T09:10:08;4.30;99.90
29403;DHT22;16382;59.942;30.472;2023-02-15T09:12:36;4.40;99.90
29403;DHT22;16382;59.942;30.472;2023-02-15T09:15:04;4.40;99.90
29403;DHT22;16382;59.942;30.472;2023-02-15T09:17:32;4.40;99.90
29403;DHT22;16382;59.942;30.472;2023-02-15T09:20:00;4.40;99.90
29403;DHT22;16382;59.942;30.472;2023-02-15T09:22:29;4.40;99.90
29403;DHT22;16382;59.942;30.472;2023-02-15T09:24:56;4.40;99.90
29403;DHT22;16382;59.942;30.472;2023-02-15T09:27:25;4.30;99.90
29403;DHT22;16382;59.942;30.472;2023-02-15T09:29:53;4.30;99.90
29403;DHT22;16382;59.942;30.472;2023-02-15T09:32:20;4.30;99.90
29403;DHT22;16382;59.942;30.472;2023-02-15T09:34:47;4.30;99.90
29403;DHT22;16382;59.942;30.472;2023-02-15T09:37:15;4.30;99.90
29403;DHT22;16382;59.942;30.472;2023-02-15T09:39:43;4.30;99.90
29403;DHT22;16382;59.942;30.472;2023-02-15T09:48:48;4.50;99.90
29403;DHT22;16382;59.942;30.472;2023-02-15T09:51:28;4.50;99.90
29403;DHT22;16382;59.942;30.472;2023-02-15T09:54:34;4.60;99.90
29403;DHT22;16382;59.942;30.472;2023-02-15T09:57:12;4.80;99.90
29403;DHT22;16382;59.942;30.472;2023-02-15T09:59:52;4.90;99.90
29403;DHT22;16382;59.942;30.472;2023-02-15T10:02:37;4.90;99.90
29403;DHT22;16382;59.942;30.472;2023-02-15T10:05:22;5.10;99.90
29403;DHT22;16382;59.942;30.472;2023-02-15T10:08:18;5.10;99.90
29403;DHT22;16382;59.942;30.472;2023-02-15T10:11:02;5.20;99.90
29403;DHT22;16382;59.942;30.472;2023-02-15T10:13:54;5.30;99.90
29403;DHT22;16382;59.942;30.472;2023-02-15T10:16:40;5.40;99.90
29403;DHT22;16382;59.942;30.472;2023-02-15T10:19:15;5.40;99.90
29403;DHT22;16382;59.942;30.472;2023-02-15T10:21:58;5.30;99.90
29403;DHT22;16382;59.942;30.472;2023-02-15T10:24:55;5.40;99.90
29403;DHT22;16382;59.942;30.472;2023-02-15T10:27:33;5.30;99.90
29403;DHT22;16382;59.942;30.472;2023-02-15T10:30:10;5.40;99.90
29403;DHT22;16382;59.942;30.472;2023-02-15T10:32:47;5.40;99.90
29403;DHT22;16382;59.942;30.472;2023-02-15T10:35:29;5.40;99.90
29403;DHT22;16382;59.942;30.472;2023-02-15T10:38:09;5.40;99.90
29403;DHT22;16382;59.942;30.472;2023-02-15T10:40:50;5.50;99.90
29403;DHT22;16382;59.942;30.472;2023-02-15T10:43:46;5.60;99.90
29403;DHT22;16382;59.942;30.472;2023-02-15T10:46:31;5.80;99.90
29403;DHT22;16382;59.942;30.472;2023-02-15T10:49:23;6.00;99.90
29403;DHT22;16382;59.942;30.472;2023-02-15T10:52:19;6.20;99.90
29403;DHT22;16382;59.942;30.472;2023-02-15T10:55:02;6.40;99.90
29403;DHT22;16382;59.942;30.472;2023-02-15T10:57:43;6.30;99.90
29403;DHT22;16382;59.942;30.472;2023-02-15T11:00:21;6.40;99.90
29403;DHT22;16382;59.942;30.472;2023-02-15T11:03:02;6.60;99.90
29403;DHT22;16382;59.942;30.472;2023-02-15T11:05:45;7.30;99.90
29403;DHT22;16382;59.942;30.472;2023-02-15T11:08:16;8.30;99.90
29403;DHT22;16382;59.942;30.472;2023-02-15T11:10:48;9.40;99.90
29403;DHT22;16382;59.942;30.472;2023-02-15T11:13:19;10.30;99.90
29403;DHT22;16382;59.942;30.472;2023-02-15T11:15:52;11.30;99.90
29403;DHT22;16382;59.942;30.472;2023-02-15T11:18:32;12.40;95.00
29403;DHT22;16382;59.942;30.472;2023-02-15T11:21:07;13.10;90.60
29403;DHT22;16382;59.942;30.472;2023-02-15T11:23:41;13.20;86.40
29403;DHT22;16382;59.942;30.472;2023-02-15T11:26:14;13.30;83.10
29403;DHT22;16382;59.942;30.472;2023-02-15T11:28:49;12.60;82.60
29403;DHT22;16382;59.942;30.472;2023-02-15T11:31:22;11.90;86.90
29403;DHT22;16382;59.942;30.472;2023-02-15T11:33:53;12.20;86.80
29403;DHT22;16382;59.942;30.472;2023-02-15T11:36:28;12.30;85.40
29403;DHT22;16382;59.942;30.472;2023-02-15T11:39:02;12.50;83.70
29403;DHT22;16382;59.942;30.472;2023-02-15T11:41:36;12.60;84.50
29403;DHT22;16382;59.942;30.472;2023-02-15T11:44:11;12.80;83.30
29403;DHT22;16382;59.942;30.472;2023-02-15T11:46:41;12.80;81.90
29403;DHT22;16382;59.942;30.472;2023-02-15T11:49:20;12.90;81.50
29403;DHT22;16382;59.942;30.472;2023-02-15T11:51:52;13.30;80.30
29403;DHT22;16382;59.942;30.472;2023-02-15T11:54:23;14.00;79.90
29403;DHT22;16382;59.942;30.472;2023-02-15T11:56:55;15.00;74.40
29403;DHT22;16382;59.942;30.472;2023-02-15T11:59:28;15.60;72.50
29403;DHT22;16382;59.942;30.472;2023-02-15T12:02:07;16.00;67.90
29403;DHT22;16382;59.942;30.472;2023-02-15T12:05:16;15.40;68.80
29403;DHT22;16382;59.942;30.472;2023-02-15T12:08:00;15.10;69.00
29403;DHT22;16382;59.942;30.472;2023-02-15T12:10:34;15.10;68.60
29403;DHT22;16382;59.942;30.472;2023-02-15T12:13:12;14.70;68.20
29403;DHT22;16382;59.942;30.472;2023-02-15T12:15:42;14.10;70.80
29403;DHT22;16382;59.942;30.472;2023-02-15T12:18:20;14.40;70.80
29403;DHT22;16382;59.942;30.472;2023-02-15T12:20:58;14.80;69.10
29403;DHT22;16382;59.942;30.472;2023-02-15T12:23:28;15.20;67.90
29403;DHT22;16382;59.942;30.472;2023-02-15T12:25:57;15.10;67.10
29403;DHT22;16382;59.942;30.472;2023-02-15T12:28:30;14.60;68.20
29403;DHT22;16382;59.942;30.472;2023-02-15T12:31:00;14.00;70.60
29403;DHT22;16382;59.942;30.472;2023-02-15T12:33:30;14.20;70.80
29403;DHT22;16382;59.942;30.472;2023-02-15T12:36:03;15.00;69.30
29403;DHT22;16382;59.942;30.472;2023-02-15T12:38:37;15.10;65.70
29403;DHT22;16382;59.942;30.472;2023-02-15T12:41:19;14.50;67.70
29403;DHT22;16382;59.942;30.472;2023-02-15T12:44:03;13.60;69.40
29403;DHT22;16382;59.942;30.472;2023-02-15T12:46:33;12.90;71.30
29403;DHT22;16382;59.942;30.472;2023-02-15T12:49:06;11.90;74.10
29403;DHT22;16382;59.942;30.472;2023-02-15T12:51:47;10.60;77.10
29403;DHT22;16382;59.942;30.472;2023-02-15T12:54:36;9.50;81.40
29403;DHT22;16382;59.942;30.472;2023-02-15T12:57:29;8.60;85.20
29403;DHT22;16382;59.942;30.472;2023-02-15T12:59:59;7.90;89.60
29403;DHT22;16382;59.942;30.472;2023-02-15T13:02:35;7.40;91.70
29403;DHT22;16382;59.942;30.472;2023-02-15T13:05:17;7.00;93.90
29403;DHT22;16382;59.942;30.472;2023-02-15T13:07:48;6.90;96.70
29403;DHT22;16382;59.942;30.472;2023-02-15T13:10:23;6.80;99.20
29403;DHT22;16382;59.942;30.472;2023-02-15T13:12:52;6.70;99.90
29403;DHT22;16382;59.942;30.472;2023-02-15T13:15:28;6.60;99.90
29403;DHT22;16382;59.942;30.472;2023-02-15T13:18:01;6.50;99.90
29403;DHT22;16382;59.942;30.472;2023-02-15T13:20:31;6.30;99.90
29403;DHT22;16382;59.942;30.472;2023-02-15T13:23:06;6.30;99.90
29403;DHT22;16382;59.942;30.472;2023-02-15T13:25:45;6.10;99.90
29403;DHT22;16382;59.942;30.472;2023-02-15T13:28:18;6.00;99.90
29403;DHT22;16382;59.942;30.472;2023-02-15T13:30:48;5.90;99.90
29403;DHT22;16382;59.942;30.472;2023-02-15T13:33:20;5.90;99.90
29403;DHT22;16382;59.942;30.472;2023-02-15T13:35:59;5.90;99.90
29403;DHT22;16382;59.942;30.472;2023-02-15T13:38:48;5.90;99.90
29403;DHT22;16382;59.942;30.472;2023-02-15T13:41:26;5.80;99.90
29403;DHT22;16382;59.942;30.472;2023-02-15T13:44:08;5.80;99.90
29403;DHT22;16382;59.942;30.472;2023-02-15T13:46:57;5.80;99.90
29403;DHT22;16382;59.942;30.472;2023-02-15T13:49:50;5.70;99.90
29403;DHT22;16382;59.942;30.472;2023-02-15T13:52:28;5.70;99.90
29403;DHT22;16382;59.942;30.472;2023-02-15T13:55:43;5.60;99.90
29403;DHT22;16382;59.942;30.472;2023-02-15T14:05:48;5.30;99.90
29403;DHT22;16382;59.942;30.472;2023-02-15T14:08:47;5.20;99.90
29403;DHT22;16382;59.942;30.472;2023-02-15T14:11:32;5.20;99.90
29403;DHT22;16382;59.942;30.472;2023-02-15T14:14:21;5.20;99.90
29403;DHT22;16382;59.942;30.472;2023-02-15T14:17:01;5.10;99.90
29403;DHT22;16382;59.942;30.472;2023-02-15T14:19:42;5.10;99.90
29403;DHT22;16382;59.942;30.472;2023-02-15T14:22:21;5.10;99.90
29403;DHT22;16382;59.942;30.472;2023-02-15T14:25:04;5.10;99.90
29403;DHT22;16382;59.942;30.472;2023-02-15T14:27:50;5.00;99.90
29403;DHT22;16382;59.942;30.472;2023-02-15T14:30:25;5.00;99.90
29403;DHT22;16382;59.942;30.472;2023-02-15T14:33:01;4.90;99.90
29403;DHT22;16382;59.942;30.472;2023-02-15T14:35:33;4.90;99.90
29403;DHT22;16382;59.942;30.472;2023-02-15T14:38:07;4.80;99.90
29403;DHT22;16382;59.942;30.472;2023-02-15T14:40:46;4.90;99.90
29403;DHT22;16382;59.942;30.472;2023-02-15T14:43:47;4.80;99.90
29403;DHT22;16382;59.942;30.472;2023-02-15T14:46:27;4.80;99.90
29403;DHT22;16382;59.942;30.472;2023-02-15T14:49:06;4.80;99.90
29403;DHT22;16382;59.942;30.472;2023-02-15T14:52:03;4.80;99.90
29403;DHT22;16382;59.942;30.472;2023-02-15T14:55:06;4.80;99.90
29403;DHT22;16382;59.942;30.472;2023-02-15T14:57:34;4.70;99.90
29403;DHT22;16382;59.942;30.472;2023-02-15T15:00:30;4.70;99.90
29403;DHT22;16382;59.942;30.472;2023-02-15T15:03:01;4.70;99.90
29403;DHT22;16382;59.942;30.472;2023-02-15T15:05:35;4.80;99.90
29403;DHT22;16382;59.942;30.472;2023-02-15T15:08:25;4.80;99.90
29403;DHT22;16382;59.942;30.472;2023-02-15T15:10:55;4.70;99.90
29403;DHT22;16382;59.942;30.472;2023-02-15T15:13:39;4.70;99.90
29403;DHT22;16382;59.942;30.472;2023-02-15T15:22:39;4.70;99.90
29403;DHT22;16382;59.942;30.472;2023-02-15T15:25:41;4.60;99.90
29403;DHT22;16382;59.942;30.472;2023-02-15T15:28:58;4.60;99.90
29403;DHT22;16382;59.942;30.472;2023-02-15T15:31:45;4.60;99.90
29403;DHT22;16382;59.942;30.472;2023-02-15T15:37:51;4.40;99.90
29403;DHT22;16382;59.942;30.472;2023-02-15T15:41:03;4.30;99.90
29403;DHT22;16382;59.942;30.472;2023-02-15T15:44:06;4.30;99.90
29403;DHT22;16382;59.942;30.472;2023-02-15T15:47:09;4.20;99.90
29403;DHT22;16382;59.942;30.472;2023-02-15T15:49:50;4.20;99.90
29403;DHT22;16382;59.942;30.472;2023-02-15T15:52:22;4.20;99.90
29403;DHT22;16382;59.942;30.472;2023-02-15T15:54:55;4.20;99.90
29403;DHT22;16382;59.942;30.472;2023-02-15T15:57:28;4.20;99.90
29403;DHT22;16382;59.942;30.472;2023-02-15T15:59:57;4.20;99.90
29403;DHT22;16382;59.942;30.472;2023-02-15T16:02:26;4.20;99.90
29403;DHT22;16382;59.942;30.472;2023-02-15T16:04:54;4.10;99.90
29403;DHT22;16382;59.942;30.472;2023-02-15T16:07:25;4.10;99.90
29403;DHT22;16382;59.942;30.472;2023-02-15T16:09:56;4.00;99.90
29403;DHT22;16382;59.942;30.472;2023-02-15T16:12:28;4.00;99.90
29403;DHT22;16382;59.942;30.472;2023-02-15T16:14:58;3.90;99.90
29403;DHT22;16382;59.942;30.472;2023-02-15T16:17:31;3.90;99.90
29403;DHT22;16382;59.942;30.472;2023-02-15T16:20:03;3.90;99.90
29403;DHT22;16382;59.942;30.472;2023-02-15T16:22:34;3.90;99.90
29403;DHT22;16382;59.942;30.472;2023-02-15T16:25:20;4.00;99.90
29403;DHT22;16382;59.942;30.472;2023-02-15T16:27:54;4.00;99.90
29403;DHT22;16382;59.942;30.472;2023-02-15T16:30:25;4.00;99.90
29403;DHT22;16382;59.942;30.472;2023-02-15T16:33:04;4.00;99.90
29403;DHT22;16382;59.942;30.472;2023-02-15T16:35:35;4.00;99.90
29403;DHT22;16382;59.942;30.472;2023-02-15T16:38:09;4.10;99.90
29403;DHT22;16382;59.942;30.472;2023-02-15T16:40:49;4.10;99.90
29403;DHT22;16382;59.942;30.472;2023-02-15T16:43:24;4.00;99.90
29403;DHT22;16382;59.942;30.472;2023-02-15T16:46:02;4.00;99.90
29403;DHT22;16382;59.942;30.472;2023-02-15T16:48:38;4.10;99.90